createdAt,value
2018-12-08T00:02:20.316Z,2.13
2018-12-08T00:04:47.035Z,1.93
2018-12-08T00:07:13.738Z,1.70
2018-12-08T00:09:40.352Z,2.00
2018-12-08T00:12:07.001Z,2.27
2018-12-08T00:14:33.608Z,2.37
2018-12-08T00:17:00.282Z,1.60
2018-12-08T00:19:26.920Z,1.80
2018-12-08T00:21:53.565Z,1.77
2018-12-08T00:24:20.173Z,2.20
2018-12-08T00:26:46.803Z,2.03
2018-12-08T00:29:13.417Z,2.27
2018-12-08T00:31:42.768Z,2.00
2018-12-08T00:34:09.380Z,2.03
2018-12-08T00:36:36.014Z,2.23
2018-12-08T00:39:03.540Z,1.97
2018-12-08T00:41:30.249Z,1.87
2018-12-08T00:43:56.898Z,1.60
2018-12-08T00:46:23.529Z,2.70
2018-12-08T00:48:50.165Z,1.87
2018-12-08T00:51:16.803Z,2.23
2018-12-08T00:53:43.457Z,1.43
2018-12-08T00:56:10.052Z,2.73
2018-12-08T00:58:36.740Z,1.90
2018-12-08T01:01:03.408Z,2.80
2018-12-08T01:03:30.037Z,1.90
2018-12-08T01:05:56.637Z,2.00
2018-12-08T01:08:23.277Z,1.50
2018-12-08T01:10:50.025Z,1.83
2018-12-08T01:13:16.764Z,1.60
2018-12-08T01:15:43.401Z,2.13
2018-12-08T01:18:10.011Z,1.67
2018-12-08T01:20:36.680Z,2.20
2018-12-08T01:23:03.419Z,2.13
2018-12-08T01:25:30.020Z,1.63
2018-12-08T01:27:56.696Z,1.63
2018-12-08T01:30:23.342Z,1.70
2018-12-08T01:32:49.971Z,1.97
2018-12-08T01:35:16.916Z,1.90
2018-12-08T01:37:43.560Z,1.20
2018-12-08T01:40:10.199Z,1.50
2018-12-08T01:42:36.839Z,1.80
2018-12-08T01:45:03.585Z,1.47
2018-12-08T01:47:30.232Z,1.30
2018-12-08T01:49:56.868Z,1.37
2018-12-08T01:52:23.472Z,1.60
2018-12-08T01:54:50.159Z,1.23
2018-12-08T01:57:16.768Z,1.50
2018-12-08T01:59:43.419Z,1.60
2018-12-08T02:02:10.023Z,1.00
2018-12-08T02:04:36.697Z,1.70
2018-12-08T02:07:03.442Z,1.00
2018-12-08T02:09:30.053Z,1.43
2018-12-08T02:11:56.656Z,1.20
2018-12-08T02:14:23.348Z,1.80
2018-12-08T02:16:49.999Z,2.10
2018-12-08T02:19:16.630Z,1.20
2018-12-08T02:21:43.271Z,1.57
2018-12-08T02:24:09.880Z,1.80
2018-12-08T02:26:36.549Z,1.00
2018-12-08T02:29:03.176Z,1.70
2018-12-08T02:31:29.832Z,0.90
2018-12-08T02:33:56.463Z,1.03
2018-12-08T02:36:23.064Z,1.20
2018-12-08T02:38:49.745Z,1.60
2018-12-08T02:41:16.385Z,1.00
2018-12-08T02:43:43.015Z,1.10
2018-12-08T02:46:09.665Z,1.00
2018-12-08T02:48:36.265Z,1.23
2018-12-08T02:51:03.043Z,2.00
2018-12-08T02:53:29.680Z,1.40
2018-12-08T02:55:56.312Z,1.20
2018-12-08T02:58:22.916Z,1.30
2018-12-08T03:00:49.605Z,1.30
2018-12-08T03:03:16.208Z,1.17
2018-12-08T03:05:42.853Z,1.20
2018-12-08T03:08:09.516Z,1.47
2018-12-08T03:10:36.144Z,0.83
2018-12-08T03:13:02.776Z,1.43
2018-12-08T03:15:29.442Z,1.23
2018-12-08T03:17:56.164Z,1.70
2018-12-08T03:20:22.807Z,1.43
2018-12-08T03:22:49.428Z,1.33
2018-12-08T03:25:16.029Z,1.13
2018-12-08T03:27:42.658Z,1.30
2018-12-08T03:30:09.345Z,1.20
2018-12-08T03:32:36.000Z,1.30
2018-12-08T03:35:02.740Z,1.50
2018-12-08T03:37:29.377Z,2.70
2018-12-08T03:39:56.022Z,1.97
2018-12-08T03:42:22.650Z,1.40
2018-12-08T03:44:49.296Z,1.27
2018-12-08T03:47:15.940Z,1.13
2018-12-08T03:49:42.578Z,1.20
2018-12-08T03:52:09.213Z,1.10
2018-12-08T03:54:35.853Z,1.53
2018-12-08T03:57:02.481Z,1.37
2018-12-08T03:59:29.092Z,1.60
2018-12-08T04:01:55.725Z,1.53
2018-12-08T04:04:22.333Z,1.40
2018-12-08T04:06:48.956Z,1.40
2018-12-08T04:09:15.606Z,1.40
2018-12-08T04:11:42.321Z,1.50
2018-12-08T04:14:08.963Z,1.80
2018-12-08T04:16:35.602Z,1.87
2018-12-08T04:19:02.208Z,1.60
2018-12-08T04:21:28.814Z,1.40
2018-12-08T04:23:55.449Z,1.90
2018-12-08T04:26:22.060Z,1.60
2018-12-08T04:28:48.696Z,1.40
2018-12-08T04:31:15.333Z,1.17
2018-12-08T04:33:41.960Z,1.57
2018-12-08T04:36:08.581Z,1.63
2018-12-08T04:38:35.208Z,1.10
2018-12-08T04:41:02.324Z,1.40
2018-12-08T04:43:28.940Z,1.87
2018-12-08T04:45:55.582Z,2.10
2018-12-08T04:48:22.320Z,1.90
2018-12-08T04:50:48.924Z,1.17
2018-12-08T04:53:15.569Z,2.07
2018-12-08T04:55:42.200Z,1.40
2018-12-08T04:58:08.877Z,1.20
2018-12-08T05:00:35.517Z,1.10
2018-12-08T05:03:03.072Z,1.20
2018-12-08T05:05:29.715Z,0.87
2018-12-08T05:07:56.353Z,1.27
2018-12-08T05:10:22.987Z,1.37
2018-12-08T05:12:49.630Z,1.30
2018-12-08T05:15:16.869Z,1.80
2018-12-08T05:17:43.493Z,1.40
2018-12-08T05:20:10.117Z,1.67
2018-12-08T05:22:36.728Z,1.73
2018-12-08T05:25:03.613Z,1.03
2018-12-08T05:27:30.242Z,1.20
2018-12-08T05:29:56.860Z,1.20
2018-12-08T05:32:23.560Z,1.27
2018-12-08T05:34:50.161Z,1.30
2018-12-08T05:37:16.836Z,1.60
2018-12-08T05:39:43.480Z,1.30
2018-12-08T05:42:10.220Z,1.23
2018-12-08T05:44:36.828Z,1.53
2018-12-08T05:47:03.599Z,1.20
2018-12-08T05:49:30.237Z,1.60
2018-12-08T05:51:56.869Z,1.30
2018-12-08T05:54:23.496Z,1.50
2018-12-08T05:56:50.102Z,1.40
2018-12-08T05:59:16.735Z,1.60
2018-12-08T06:01:43.366Z,1.63
2018-12-08T06:04:10.077Z,1.60
2018-12-08T06:06:36.707Z,1.77
2018-12-08T06:09:04.108Z,1.30
2018-12-08T06:11:30.814Z,1.63
2018-12-08T06:13:57.420Z,1.80
2018-12-08T06:16:24.081Z,1.50
2018-12-08T06:18:50.718Z,1.60
2018-12-08T06:21:17.321Z,1.77
2018-12-08T06:23:43.970Z,1.30
2018-12-08T06:26:10.635Z,1.90
2018-12-08T06:28:38.924Z,1.70
2018-12-08T06:31:05.864Z,1.60
2018-12-08T06:33:32.500Z,1.70
2018-12-08T06:35:59.144Z,1.90
2018-12-08T06:38:25.753Z,1.57
2018-12-08T06:40:52.416Z,1.60
2018-12-08T06:43:19.056Z,1.90
2018-12-08T06:45:45.751Z,1.77
2018-12-08T06:48:12.445Z,1.73
2018-12-08T06:50:39.053Z,1.67
2018-12-08T06:53:05.712Z,1.20
2018-12-08T06:55:32.353Z,1.50
2018-12-08T06:57:58.985Z,1.37
2018-12-08T07:00:25.640Z,1.73
2018-12-08T07:02:52.265Z,1.47
2018-12-08T07:05:18.925Z,1.50
2018-12-08T07:07:45.648Z,1.33
2018-12-08T07:10:12.269Z,1.97
2018-12-08T07:12:38.932Z,1.77
2018-12-08T07:15:05.671Z,1.90
2018-12-08T07:17:32.308Z,1.50
2018-12-08T07:19:58.952Z,1.43
2018-12-08T07:22:25.556Z,1.60
2018-12-08T07:24:52.227Z,1.20
2018-12-08T07:27:18.865Z,1.83
2018-12-08T07:29:45.495Z,1.50
2018-12-08T07:32:12.157Z,1.87
2018-12-08T07:34:38.782Z,1.40
2018-12-08T07:37:05.419Z,1.93
2018-12-08T07:39:32.064Z,1.47
2018-12-08T07:41:58.698Z,2.10
2018-12-08T07:44:25.343Z,1.30
2018-12-08T07:46:51.957Z,1.10
2018-12-08T07:49:18.587Z,1.10
2018-12-08T07:51:45.256Z,1.40
2018-12-08T07:54:11.894Z,1.50
2018-12-08T07:56:38.528Z,1.50
2018-12-08T07:59:05.208Z,1.43
2018-12-08T08:01:31.915Z,1.70
2018-12-08T08:03:58.525Z,1.60
2018-12-08T08:06:25.173Z,1.57
2018-12-08T08:08:51.828Z,1.30
2018-12-08T08:11:19.893Z,1.37
2018-12-08T08:13:46.740Z,1.47
2018-12-08T08:16:13.385Z,1.23
2018-12-08T08:18:39.997Z,1.00
2018-12-08T08:21:06.668Z,1.47
2018-12-08T08:23:33.405Z,1.10
2018-12-08T08:26:00.040Z,1.30
2018-12-08T08:28:26.682Z,0.90
2018-12-08T08:30:53.320Z,1.07
2018-12-08T08:33:19.964Z,0.90
2018-12-08T08:35:46.595Z,1.00
2018-12-08T08:38:13.196Z,0.90
2018-12-08T08:40:39.840Z,1.37
2018-12-08T08:43:06.517Z,0.80
2018-12-08T08:45:33.153Z,1.07
2018-12-08T08:47:59.799Z,0.90
2018-12-08T08:50:26.429Z,1.00
2018-12-08T08:52:53.064Z,0.90
2018-12-08T08:55:19.717Z,1.00
2018-12-08T08:57:46.346Z,0.83
2018-12-08T09:00:12.980Z,0.80
2018-12-08T09:02:39.593Z,0.80
2018-12-08T09:05:06.269Z,1.30
2018-12-08T09:07:32.884Z,0.93
2018-12-08T09:09:59.753Z,1.20
2018-12-08T09:12:26.384Z,0.87
2018-12-08T09:14:53.037Z,0.80
2018-12-08T09:17:19.653Z,0.83
2018-12-08T09:19:46.304Z,1.50
2018-12-08T09:22:12.987Z,0.93
2018-12-08T09:24:39.705Z,0.70
2018-12-08T09:27:06.328Z,0.90
2018-12-08T09:29:33.157Z,1.00
2018-12-08T09:31:59.760Z,0.90
2018-12-08T09:34:26.393Z,1.00
2018-12-08T09:36:52.996Z,1.10
2018-12-08T09:39:19.763Z,1.30
2018-12-08T09:41:46.361Z,0.80
2018-12-08T09:44:13.100Z,0.87
2018-12-08T09:46:39.728Z,0.70
2018-12-08T09:49:06.340Z,0.90
2018-12-08T09:51:32.974Z,0.83
2018-12-08T09:53:59.662Z,0.67
2018-12-08T09:56:26.324Z,0.70
2018-12-08T09:58:53.045Z,0.87
2018-12-08T10:01:19.657Z,0.70
2018-12-08T10:03:46.284Z,0.77
2018-12-08T10:06:12.893Z,0.77
2018-12-08T10:08:39.601Z,0.80
2018-12-08T10:11:06.488Z,0.80
2018-12-08T10:13:33.097Z,0.90
2018-12-08T10:15:59.730Z,0.60
2018-12-08T10:18:26.361Z,0.87
2018-12-08T10:20:52.973Z,0.87
2018-12-08T10:23:19.608Z,0.90
2018-12-08T10:25:46.214Z,1.10
2018-12-08T10:28:12.820Z,1.20
2018-12-08T10:30:39.582Z,1.20
2018-12-08T10:33:06.425Z,0.90
2018-12-08T10:35:33.245Z,1.47
2018-12-08T10:37:59.844Z,0.90
2018-12-08T10:40:26.525Z,1.90
2018-12-08T10:42:53.161Z,1.33
2018-12-08T10:45:19.796Z,1.83
2018-12-08T10:47:46.428Z,1.50
2018-12-08T10:50:13.064Z,1.40
2018-12-08T10:52:39.714Z,1.60
2018-12-08T10:55:06.452Z,1.90
2018-12-08T10:57:33.196Z,1.20
2018-12-08T10:59:59.841Z,1.60
2018-12-08T11:02:32.176Z,1.93
2018-12-08T11:04:58.812Z,1.30
2018-12-08T11:07:25.418Z,1.27
2018-12-08T11:09:52.040Z,1.17
2018-12-08T11:12:18.641Z,1.23
2018-12-08T11:14:45.272Z,1.30
2018-12-08T11:17:11.943Z,1.07
2018-12-08T11:19:38.585Z,1.30
2018-12-08T11:22:05.323Z,1.30
2018-12-08T11:24:32.158Z,0.97
2018-12-08T11:26:58.796Z,0.90
2018-12-08T11:29:25.443Z,1.30
2018-12-08T11:31:52.082Z,1.00
2018-12-08T11:34:18.810Z,1.00
2018-12-08T11:36:49.540Z,0.73
2018-12-08T11:39:14.185Z,0.80
2018-12-08T11:41:41.104Z,1.03
2018-12-08T11:44:07.732Z,0.60
2018-12-08T11:46:34.368Z,0.70
2018-12-08T11:49:01.033Z,0.93
2018-12-08T11:51:27.657Z,0.70
2018-12-08T11:53:54.285Z,0.60
2018-12-08T11:56:20.916Z,0.70
2018-12-08T11:58:47.533Z,0.70
2018-12-08T12:01:14.158Z,0.60
2018-12-08T12:03:40.766Z,0.70
2018-12-08T12:06:07.388Z,1.00
2018-12-08T12:08:34.032Z,0.70
2018-12-08T12:11:00.752Z,0.77
2018-12-08T12:13:27.415Z,0.80
2018-12-08T12:15:54.068Z,0.70
2018-12-08T12:18:20.781Z,0.60
2018-12-08T12:20:47.394Z,1.17
2018-12-08T12:23:14.000Z,1.10
2018-12-08T12:25:40.691Z,0.83
2018-12-08T12:28:07.358Z,0.77
2018-12-08T12:30:33.985Z,0.87
2018-12-08T12:33:00.712Z,1.07
2018-12-08T12:35:27.330Z,1.00
2018-12-08T12:37:53.988Z,0.90
2018-12-08T12:40:20.615Z,0.80
2018-12-08T12:42:47.228Z,0.70
2018-12-08T12:45:13.864Z,1.10
2018-12-08T12:47:40.553Z,0.80
2018-12-08T12:50:07.304Z,0.70
2018-12-08T12:52:33.905Z,0.60
2018-12-08T12:55:00.530Z,0.80
2018-12-08T12:57:27.409Z,0.83
2018-12-08T12:59:54.044Z,1.00
2018-12-08T13:02:20.700Z,0.80
2018-12-08T13:04:47.333Z,0.57
2018-12-08T13:07:14.075Z,1.10
2018-12-08T13:09:40.708Z,0.90
2018-12-08T13:12:07.511Z,0.73
2018-12-08T13:14:34.402Z,0.90
2018-12-08T13:17:01.340Z,1.00
2018-12-08T13:19:28.493Z,0.80
2018-12-08T13:21:55.104Z,1.20
2018-12-08T13:24:23.718Z,1.03
2018-12-08T13:26:50.457Z,0.83
2018-12-08T13:29:17.096Z,1.00
2018-12-08T13:31:43.700Z,1.17
2018-12-08T13:34:23.785Z,1.40
2018-12-08T13:36:50.875Z,1.07
2018-12-08T13:39:17.730Z,1.20
2018-12-08T13:41:44.328Z,0.80
2018-12-08T13:44:12.920Z,0.93
2018-12-08T13:46:39.551Z,0.73
2018-12-08T13:49:06.342Z,1.20
2018-12-08T13:51:32.973Z,0.70
2018-12-08T13:54:01.708Z,0.97
2018-12-08T13:56:28.341Z,0.60
2018-12-08T13:58:54.950Z,0.90
2018-12-08T14:01:21.633Z,0.70
2018-12-08T14:03:48.249Z,1.20
2018-12-08T14:06:14.915Z,0.73
2018-12-08T14:08:41.514Z,0.90
2018-12-08T14:11:08.184Z,1.10
2018-12-08T14:13:34.794Z,1.07
2018-12-08T14:16:01.761Z,0.80
2018-12-08T14:18:28.387Z,1.60
2018-12-08T14:20:55.043Z,0.87
2018-12-08T14:23:21.704Z,0.87
2018-12-08T14:25:48.313Z,0.80
2018-12-08T14:28:15.215Z,1.57
2018-12-08T14:30:43.927Z,1.07
2018-12-08T14:33:10.524Z,1.20
2018-12-08T14:35:37.234Z,1.00
2018-12-08T14:38:03.844Z,0.90
2018-12-08T14:40:30.450Z,1.07
2018-12-08T14:42:57.141Z,0.97
2018-12-08T14:45:23.809Z,1.23
2018-12-08T14:47:50.437Z,0.80
2018-12-08T14:50:17.045Z,0.90
2018-12-08T14:52:43.714Z,1.20
2018-12-08T14:55:10.457Z,1.10
2018-12-08T14:57:37.479Z,1.10
2018-12-08T15:00:05.281Z,1.33
2018-12-08T15:02:32.116Z,1.10
2018-12-08T15:04:58.751Z,1.53
2018-12-08T15:07:25.395Z,1.40
2018-12-08T15:09:52.136Z,1.47
2018-12-08T15:12:18.767Z,1.20
2018-12-08T15:14:45.391Z,1.10
2018-12-08T15:17:12.044Z,1.20
2018-12-08T15:19:38.715Z,1.10
2018-12-08T15:22:05.328Z,0.93
2018-12-08T15:24:31.974Z,0.90
2018-12-08T15:26:58.605Z,0.97
2018-12-08T15:29:25.213Z,1.07
2018-12-08T15:31:51.850Z,1.00
2018-12-08T15:34:18.493Z,1.10
2018-12-08T15:36:45.097Z,1.20
2018-12-08T15:39:11.704Z,1.20
2018-12-08T15:41:38.346Z,1.27
2018-12-08T15:44:04.969Z,1.20
2018-12-08T15:46:31.591Z,1.20
2018-12-08T15:48:58.200Z,1.37
2018-12-08T15:51:24.830Z,1.37
2018-12-08T15:53:51.527Z,1.43
2018-12-08T15:56:18.132Z,1.23
2018-12-08T15:58:44.809Z,1.37
2018-12-08T16:01:11.441Z,1.30
2018-12-08T16:03:38.076Z,3.23
2018-12-08T16:06:04.823Z,2.30
2018-12-08T16:08:31.477Z,1.60
2018-12-08T16:10:58.137Z,2.10
2018-12-08T16:13:24.772Z,2.00
2018-12-08T16:15:54.886Z,1.80
2018-12-08T16:18:23.255Z,1.80
2018-12-08T16:20:50.036Z,2.10
2018-12-08T16:23:16.673Z,2.62
2018-12-08T16:25:43.373Z,2.53
2018-12-08T16:28:10.004Z,1.80
2018-12-08T16:30:36.634Z,2.10
2018-12-08T16:33:03.245Z,2.40
2018-12-08T16:35:29.872Z,2.20
2018-12-08T16:37:57.122Z,2.50
2018-12-08T16:40:24.228Z,2.40
2018-12-08T16:42:50.913Z,1.90
2018-12-08T16:45:17.605Z,1.90
2018-12-08T16:47:44.372Z,1.80
2018-12-08T16:50:11.067Z,1.60
2018-12-08T16:52:37.765Z,1.93
2018-12-08T16:55:04.657Z,2.17
2018-12-08T16:57:31.264Z,1.40
2018-12-08T16:59:58.083Z,2.80
2018-12-08T17:02:24.811Z,2.23
2018-12-08T17:04:51.409Z,2.03
2018-12-08T17:07:19.977Z,2.33
2018-12-08T17:09:46.613Z,2.27
2018-12-08T17:12:13.226Z,1.90
2018-12-08T17:14:39.941Z,1.80
2018-12-08T17:17:06.580Z,1.57
2018-12-08T17:19:33.246Z,2.20
2018-12-08T17:21:59.873Z,1.93
2018-12-08T17:24:26.486Z,1.90
2018-12-08T17:26:53.123Z,1.87
2018-12-08T17:29:19.724Z,1.70
2018-12-08T17:31:46.366Z,1.80
2018-12-08T17:34:13.017Z,1.60
2018-12-08T17:36:39.617Z,1.43
2018-12-08T17:39:06.274Z,1.57
2018-12-08T17:41:32.909Z,2.00
2018-12-08T17:43:59.597Z,1.60
2018-12-08T17:46:26.233Z,1.70
2018-12-08T17:48:52.878Z,1.50
2018-12-08T17:51:19.552Z,1.40
2018-12-08T17:53:46.167Z,1.40
2018-12-08T17:56:12.796Z,1.70
2018-12-08T17:58:39.771Z,2.33
2018-12-08T18:01:06.481Z,1.60
2018-12-08T18:03:33.112Z,1.50
2018-12-08T18:05:59.720Z,1.10
2018-12-08T18:08:26.480Z,1.60
2018-12-08T18:10:53.086Z,1.33
2018-12-08T18:13:19.686Z,1.20
2018-12-08T18:15:46.331Z,1.10
2018-12-08T18:18:12.962Z,1.13
2018-12-08T18:20:39.576Z,1.10
2018-12-08T18:23:06.213Z,1.37
2018-12-08T18:25:32.828Z,1.30
2018-12-08T18:27:59.456Z,1.30
2018-12-08T18:30:26.148Z,1.23
2018-12-08T18:32:52.780Z,1.27
2018-12-08T18:35:19.400Z,1.33
2018-12-08T18:37:46.060Z,1.30
2018-12-08T18:40:13.041Z,1.40
2018-12-08T18:42:39.749Z,1.00
2018-12-08T18:45:06.489Z,1.10
2018-12-08T18:47:33.128Z,1.03
2018-12-08T18:49:59.768Z,1.70
2018-12-08T18:52:26.380Z,1.00
2018-12-08T18:54:53.026Z,1.17
2018-12-08T18:57:19.691Z,1.10
2018-12-08T18:59:46.327Z,1.23
2018-12-08T19:02:12.969Z,1.10
2018-12-08T19:04:39.577Z,1.10
2018-12-08T19:07:06.241Z,0.90
2018-12-08T19:09:32.882Z,0.70
2018-12-08T19:11:59.620Z,0.77
2018-12-08T19:14:26.364Z,0.80
2018-12-08T19:16:53.004Z,0.90
2018-12-08T19:19:19.629Z,0.80
2018-12-08T19:21:46.280Z,0.87
2018-12-08T19:24:12.925Z,0.60
2018-12-08T19:26:39.561Z,0.63
2018-12-08T19:29:06.199Z,0.80
2018-12-08T19:31:32.809Z,0.77
2018-12-08T19:33:59.486Z,0.77
2018-12-08T19:36:26.108Z,0.80
2018-12-08T19:38:52.741Z,0.63
2018-12-08T19:41:19.373Z,0.83
2018-12-08T19:43:46.028Z,0.83
2018-12-08T19:46:12.672Z,1.00
2018-12-08T19:48:39.304Z,0.77
2018-12-08T19:51:05.936Z,0.90
2018-12-08T19:53:32.562Z,0.93
2018-12-08T19:55:59.207Z,0.90
2018-12-08T19:58:25.867Z,1.10
2018-12-08T20:00:52.476Z,1.30
2018-12-08T20:03:19.124Z,0.70
2018-12-08T20:05:45.776Z,0.93
2018-12-08T20:08:12.423Z,0.90
2018-12-08T20:10:39.066Z,1.00
2018-12-08T20:13:05.701Z,1.10
2018-12-08T20:15:32.336Z,0.90
2018-12-08T20:17:58.973Z,0.90
2018-12-08T20:20:25.620Z,1.00
2018-12-08T20:22:52.249Z,0.83
2018-12-08T20:25:18.857Z,0.97
2018-12-08T20:27:45.528Z,0.90
2018-12-08T20:30:12.135Z,1.00
2018-12-08T20:32:38.812Z,0.70
2018-12-08T20:35:05.454Z,0.93
2018-12-08T20:37:32.088Z,0.63
2018-12-08T20:39:58.723Z,0.73
2018-12-08T20:42:26.169Z,0.70
2018-12-08T20:44:52.859Z,0.80
2018-12-08T20:47:19.466Z,0.73
2018-12-08T20:49:46.104Z,1.53
2018-12-08T20:52:12.703Z,0.80
2018-12-08T20:54:39.383Z,1.00
2018-12-08T20:57:05.988Z,0.80
2018-12-08T20:59:32.660Z,0.80
2018-12-08T21:01:59.291Z,0.90
2018-12-08T21:04:25.898Z,1.20
2018-12-08T21:06:52.581Z,1.00
2018-12-08T21:09:19.189Z,0.60
2018-12-08T21:11:45.852Z,0.67
2018-12-08T21:14:13.517Z,0.90
2018-12-08T21:16:40.154Z,0.80
2018-12-08T21:19:06.762Z,0.80
2018-12-08T21:21:33.444Z,0.90
2018-12-08T21:24:00.998Z,0.90
2018-12-08T21:26:28.040Z,0.80
2018-12-08T21:28:54.656Z,0.70
2018-12-08T21:31:21.277Z,0.80
2018-12-08T21:33:48.233Z,0.80
2018-12-08T21:36:14.883Z,0.90
2018-12-08T21:38:41.487Z,0.70
2018-12-08T21:41:08.181Z,0.70
2018-12-08T21:43:35.124Z,0.80
2018-12-08T21:46:02.276Z,0.67
2018-12-08T21:48:28.897Z,0.70
2018-12-08T21:50:55.683Z,0.70
2018-12-08T21:53:22.295Z,0.53
2018-12-08T21:55:48.923Z,0.70
2018-12-08T21:58:15.559Z,0.63
2018-12-08T22:00:42.220Z,0.60
2018-12-08T22:03:08.852Z,0.70
2018-12-08T22:05:35.457Z,0.70
2018-12-08T22:08:02.060Z,0.80
2018-12-08T22:13:02.171Z,0.70
2018-12-08T22:15:28.804Z,0.70
2018-12-08T22:17:55.408Z,0.60
2018-12-08T22:20:22.081Z,0.70
2018-12-08T22:22:48.701Z,0.70
2018-12-08T22:25:15.312Z,0.70
2018-12-08T22:27:42.099Z,0.73
2018-12-08T22:30:08.767Z,0.73
2018-12-08T22:32:35.415Z,0.60
2018-12-08T22:35:02.431Z,0.70
2018-12-08T22:37:29.176Z,0.70
2018-12-08T22:39:55.924Z,0.47
2018-12-08T22:42:22.553Z,0.63
2018-12-08T22:44:49.474Z,0.53
2018-12-08T22:47:16.094Z,0.60
2018-12-08T22:49:42.737Z,0.73
2018-12-08T22:52:09.414Z,0.90
2018-12-08T22:54:36.060Z,0.50
2018-12-08T22:57:02.685Z,0.83
2018-12-08T22:59:29.321Z,0.60
2018-12-08T23:01:55.968Z,0.70
2018-12-08T23:04:22.576Z,1.30
2018-12-08T23:07:00.713Z,0.60
2018-12-08T23:09:27.453Z,0.60
2018-12-08T23:11:54.103Z,0.60
2018-12-08T23:14:20.732Z,0.63
2018-12-08T23:16:47.372Z,0.80
2018-12-08T23:19:14.023Z,0.67
2018-12-08T23:21:40.752Z,0.67
2018-12-08T23:24:07.492Z,0.73
2018-12-08T23:26:34.137Z,0.50
2018-12-08T23:29:01.429Z,0.73
2018-12-08T23:31:28.076Z,0.70
2018-12-08T23:33:54.737Z,0.90
2018-12-08T23:36:21.412Z,0.70
2018-12-08T23:38:48.049Z,1.10
2018-12-08T23:41:14.688Z,0.80
2018-12-08T23:43:41.329Z,1.10
2018-12-08T23:46:07.956Z,0.90
2018-12-08T23:48:34.610Z,1.07
2018-12-08T23:51:01.660Z,1.17
2018-12-08T23:53:28.292Z,1.10
2018-12-08T23:55:54.901Z,0.73
2018-12-08T23:58:21.577Z,1.20
